sensor_id;sensor_type;location;lat;lon;timestamp;P1;durP1;ratioP1;P2;durP2;ratioP2
51451;SDS011;37521;52.020;-1.740;2023-10-09T00:00:13;2.88;;;1.45;;
51451;SDS011;37521;52.020;-1.740;2023-10-09T00:03:03;6.47;;;1.88;;
51451;SDS011;37521;52.020;-1.740;2023-10-09T00:05:34;2.70;;;1.60;;
51451;SDS011;37521;52.020;-1.740;2023-10-09T00:08:13;4.78;;;1.55;;
51451;SDS011;37521;52.020;-1.740;2023-10-09T00:10:46;1.35;;;1.15;;
51451;SDS011;37521;52.020;-1.740;2023-10-09T00:13:20;2.67;;;1.23;;
51451;SDS011;37521;52.020;-1.740;2023-10-09T00:15:55;3.80;;;1.60;;
51451;SDS011;37521;52.020;-1.740;2023-10-09T00:18:29;5.25;;;2.03;;
51451;SDS011;37521;52.020;-1.740;2023-10-09T00:21:00;3.90;;;1.70;;
51451;SDS011;37521;52.020;-1.740;2023-10-09T00:23:39;4.43;;;2.08;;
51451;SDS011;37521;52.020;-1.740;2023-10-09T00:26:08;4.43;;;2.00;;
51451;SDS011;37521;52.020;-1.740;2023-10-09T00:28:47;3.80;;;1.65;;
51451;SDS011;37521;52.020;-1.740;2023-10-09T00:31:18;4.35;;;1.83;;
51451;SDS011;37521;52.020;-1.740;2023-10-09T00:34:01;3.25;;;1.50;;
51451;SDS011;37521;52.020;-1.740;2023-10-09T00:36:34;3.33;;;1.20;;
51451;SDS011;37521;52.020;-1.740;2023-10-09T00:39:18;2.53;;;1.48;;
51451;SDS011;37521;52.020;-1.740;2023-10-09T00:42:07;2.33;;;1.27;;
51451;SDS011;37521;52.020;-1.740;2023-10-09T00:44:39;2.40;;;1.00;;
51451;SDS011;37521;52.020;-1.740;2023-10-09T00:47:09;3.70;;;1.48;;
51451;SDS011;37521;52.020;-1.740;2023-10-09T00:49:51;2.78;;;1.48;;
51451;SDS011;37521;52.020;-1.740;2023-10-09T00:52:26;11.95;;;1.88;;
51451;SDS011;37521;52.020;-1.740;2023-10-09T00:55:04;3.75;;;1.90;;
51451;SDS011;37521;52.020;-1.740;2023-10-09T00:57:41;3.45;;;1.67;;
51451;SDS011;37521;52.020;-1.740;2023-10-09T01:00:17;2.90;;;1.50;;
51451;SDS011;37521;52.020;-1.740;2023-10-09T01:03:00;3.40;;;1.65;;
51451;SDS011;37521;52.020;-1.740;2023-10-09T01:05:48;3.38;;;1.92;;
51451;SDS011;37521;52.020;-1.740;2023-10-09T01:08:24;2.85;;;2.10;;
51451;SDS011;37521;52.020;-1.740;2023-10-09T01:10:57;3.22;;;1.50;;
51451;SDS011;37521;52.020;-1.740;2023-10-09T01:13:36;2.50;;;1.73;;
51451;SDS011;37521;52.020;-1.740;2023-10-09T01:16:20;3.70;;;1.58;;
51451;SDS011;37521;52.020;-1.740;2023-10-09T01:18:50;3.25;;;1.45;;
51451;SDS011;37521;52.020;-1.740;2023-10-09T01:21:21;7.85;;;1.92;;
51451;SDS011;37521;52.020;-1.740;2023-10-09T01:23:53;3.30;;;1.75;;
51451;SDS011;37521;52.020;-1.740;2023-10-09T01:26:36;2.45;;;1.45;;
51451;SDS011;37521;52.020;-1.740;2023-10-09T01:29:12;2.15;;;1.38;;
51451;SDS011;37521;52.020;-1.740;2023-10-09T01:31:46;3.95;;;1.67;;
51451;SDS011;37521;52.020;-1.740;2023-10-09T01:34:22;1.95;;;1.45;;
51451;SDS011;37521;52.020;-1.740;2023-10-09T01:37:01;2.72;;;1.50;;
51451;SDS011;37521;52.020;-1.740;2023-10-09T01:39:34;3.47;;;1.80;;
51451;SDS011;37521;52.020;-1.740;2023-10-09T01:42:07;3.03;;;1.77;;
51451;SDS011;37521;52.020;-1.740;2023-10-09T01:44:36;2.17;;;1.55;;
51451;SDS011;37521;52.020;-1.740;2023-10-09T01:47:10;2.83;;;1.88;;
51451;SDS011;37521;52.020;-1.740;2023-10-09T01:49:44;2.58;;;1.60;;
51451;SDS011;37521;52.020;-1.740;2023-10-09T01:52:16;2.75;;;1.75;;
51451;SDS011;37521;52.020;-1.740;2023-10-09T01:54:46;3.15;;;1.98;;
51451;SDS011;37521;52.020;-1.740;2023-10-09T01:57:19;2.17;;;1.55;;
51451;SDS011;37521;52.020;-1.740;2023-10-09T01:59:50;1.75;;;1.10;;
51451;SDS011;37521;52.020;-1.740;2023-10-09T02:02:21;1.92;;;1.40;;
51451;SDS011;37521;52.020;-1.740;2023-10-09T02:05:01;1.88;;;1.25;;
51451;SDS011;37521;52.020;-1.740;2023-10-09T02:07:36;2.63;;;1.42;;
51451;SDS011;37521;52.020;-1.740;2023-10-09T02:10:13;2.33;;;1.60;;
51451;SDS011;37521;52.020;-1.740;2023-10-09T02:12:53;3.47;;;1.90;;
51451;SDS011;37521;52.020;-1.740;2023-10-09T02:15:25;2.67;;;1.60;;
51451;SDS011;37521;52.020;-1.740;2023-10-09T02:18:13;3.72;;;1.85;;
51451;SDS011;37521;52.020;-1.740;2023-10-09T02:21:04;2.92;;;1.67;;
51451;SDS011;37521;52.020;-1.740;2023-10-09T02:23:40;2.42;;;1.60;;
51451;SDS011;37521;52.020;-1.740;2023-10-09T02:26:15;3.80;;;1.90;;
51451;SDS011;37521;52.020;-1.740;2023-10-09T02:28:46;5.05;;;1.75;;
51451;SDS011;37521;52.020;-1.740;2023-10-09T02:31:26;2.38;;;1.70;;
51451;SDS011;37521;52.020;-1.740;2023-10-09T02:34:03;4.32;;;2.03;;
51451;SDS011;37521;52.020;-1.740;2023-10-09T02:36:39;1.98;;;1.42;;
51451;SDS011;37521;52.020;-1.740;2023-10-09T02:39:10;1.52;;;1.38;;
51451;SDS011;37521;52.020;-1.740;2023-10-09T02:41:52;2.90;;;1.60;;
51451;SDS011;37521;52.020;-1.740;2023-10-09T02:44:27;1.70;;;1.30;;
51451;SDS011;37521;52.020;-1.740;2023-10-09T02:47:06;2.45;;;1.67;;
51451;SDS011;37521;52.020;-1.740;2023-10-09T02:49:45;3.08;;;1.70;;
51451;SDS011;37521;52.020;-1.740;2023-10-09T02:52:15;3.53;;;2.30;;
51451;SDS011;37521;52.020;-1.740;2023-10-09T02:54:46;2.80;;;1.50;;
51451;SDS011;37521;52.020;-1.740;2023-10-09T02:57:16;2.55;;;1.65;;
51451;SDS011;37521;52.020;-1.740;2023-10-09T02:59:48;4.13;;;1.58;;
51451;SDS011;37521;52.020;-1.740;2023-10-09T03:02:18;3.50;;;1.95;;
51451;SDS011;37521;52.020;-1.740;2023-10-09T03:04:47;2.65;;;1.65;;
51451;SDS011;37521;52.020;-1.740;2023-10-09T03:07:15;2.42;;;1.33;;
51451;SDS011;37521;52.020;-1.740;2023-10-09T03:09:44;2.75;;;1.52;;
51451;SDS011;37521;52.020;-1.740;2023-10-09T03:12:12;2.67;;;1.90;;
51451;SDS011;37521;52.020;-1.740;2023-10-09T03:14:47;1.77;;;1.55;;
51451;SDS011;37521;52.020;-1.740;2023-10-09T03:17:15;4.40;;;1.40;;
51451;SDS011;37521;52.020;-1.740;2023-10-09T03:19:45;2.72;;;1.50;;
51451;SDS011;37521;52.020;-1.740;2023-10-09T03:22:13;2.67;;;1.67;;
51451;SDS011;37521;52.020;-1.740;2023-10-09T03:24:42;2.97;;;1.67;;
51451;SDS011;37521;52.020;-1.740;2023-10-09T03:27:18;4.07;;;2.25;;
51451;SDS011;37521;52.020;-1.740;2023-10-09T03:29:48;2.83;;;1.70;;
51451;SDS011;37521;52.020;-1.740;2023-10-09T03:32:20;5.18;;;1.77;;
51451;SDS011;37521;52.020;-1.740;2023-10-09T03:34:49;4.55;;;2.25;;
51451;SDS011;37521;52.020;-1.740;2023-10-09T03:37:18;2.83;;;1.30;;
51451;SDS011;37521;52.020;-1.740;2023-10-09T03:40:02;3.25;;;1.67;;
51451;SDS011;37521;52.020;-1.740;2023-10-09T03:42:34;2.90;;;1.40;;
51451;SDS011;37521;52.020;-1.740;2023-10-09T03:45:05;3.47;;;1.63;;
51451;SDS011;37521;52.020;-1.740;2023-10-09T03:47:40;3.88;;;1.38;;
51451;SDS011;37521;52.020;-1.740;2023-10-09T03:50:10;4.32;;;1.35;;
51451;SDS011;37521;52.020;-1.740;2023-10-09T03:52:50;3.30;;;2.05;;
51451;SDS011;37521;52.020;-1.740;2023-10-09T03:55:22;2.08;;;1.38;;
51451;SDS011;37521;52.020;-1.740;2023-10-09T03:57:55;4.40;;;1.88;;
51451;SDS011;37521;52.020;-1.740;2023-10-09T04:00:28;2.70;;;1.83;;
51451;SDS011;37521;52.020;-1.740;2023-10-09T04:02:58;1.48;;;0.98;;
51451;SDS011;37521;52.020;-1.740;2023-10-09T04:05:27;2.53;;;1.50;;
51451;SDS011;37521;52.020;-1.740;2023-10-09T04:07:55;3.80;;;1.50;;
51451;SDS011;37521;52.020;-1.740;2023-10-09T04:10:25;2.85;;;1.40;;
51451;SDS011;37521;52.020;-1.740;2023-10-09T04:13:22;4.22;;;1.88;;
51451;SDS011;37521;52.020;-1.740;2023-10-09T04:16:00;3.72;;;1.85;;
51451;SDS011;37521;52.020;-1.740;2023-10-09T04:18:38;5.50;;;1.90;;
51451;SDS011;37521;52.020;-1.740;2023-10-09T04:21:07;3.42;;;1.85;;
51451;SDS011;37521;52.020;-1.740;2023-10-09T04:23:46;1.92;;;1.75;;
51451;SDS011;37521;52.020;-1.740;2023-10-09T04:26:32;6.68;;;1.58;;
51451;SDS011;37521;52.020;-1.740;2023-10-09T04:29:03;2.45;;;1.23;;
51451;SDS011;37521;52.020;-1.740;2023-10-09T04:31:34;2.95;;;1.55;;
51451;SDS011;37521;52.020;-1.740;2023-10-09T04:34:04;3.25;;;1.88;;
51451;SDS011;37521;52.020;-1.740;2023-10-09T04:36:55;2.78;;;2.08;;
51451;SDS011;37521;52.020;-1.740;2023-10-09T04:39:27;2.20;;;1.70;;
51451;SDS011;37521;52.020;-1.740;2023-10-09T04:42:13;3.85;;;1.58;;
51451;SDS011;37521;52.020;-1.740;2023-10-09T04:45:05;2.95;;;1.67;;
51451;SDS011;37521;52.020;-1.740;2023-10-09T04:48:07;4.47;;;2.00;;
51451;SDS011;37521;52.020;-1.740;2023-10-09T04:50:36;4.05;;;1.73;;
51451;SDS011;37521;52.020;-1.740;2023-10-09T04:53:33;3.05;;;1.83;;
51451;SDS011;37521;52.020;-1.740;2023-10-09T04:56:11;3.90;;;2.15;;
51451;SDS011;37521;52.020;-1.740;2023-10-09T04:58:43;2.67;;;1.52;;
51451;SDS011;37521;52.020;-1.740;2023-10-09T05:01:13;2.65;;;1.83;;
51451;SDS011;37521;52.020;-1.740;2023-10-09T05:04:04;2.45;;;1.67;;
51451;SDS011;37521;52.020;-1.740;2023-10-09T05:06:46;3.55;;;2.20;;
51451;SDS011;37521;52.020;-1.740;2023-10-09T05:09:22;4.45;;;2.10;;
51451;SDS011;37521;52.020;-1.740;2023-10-09T05:11:54;3.00;;;1.65;;
51451;SDS011;37521;52.020;-1.740;2023-10-09T05:14:42;4.63;;;1.98;;
51451;SDS011;37521;52.020;-1.740;2023-10-09T05:17:33;4.03;;;2.10;;
51451;SDS011;37521;52.020;-1.740;2023-10-09T05:20:04;3.83;;;1.90;;
51451;SDS011;37521;52.020;-1.740;2023-10-09T05:22:51;2.53;;;1.88;;
51451;SDS011;37521;52.020;-1.740;2023-10-09T05:25:26;2.97;;;1.60;;
51451;SDS011;37521;52.020;-1.740;2023-10-09T05:28:12;2.08;;;1.60;;
51451;SDS011;37521;52.020;-1.740;2023-10-09T05:30:58;5.32;;;1.67;;
51451;SDS011;37521;52.020;-1.740;2023-10-09T05:33:36;2.88;;;1.92;;
51451;SDS011;37521;52.020;-1.740;2023-10-09T05:36:06;7.72;;;1.88;;
51451;SDS011;37521;52.020;-1.740;2023-10-09T05:38:58;2.67;;;1.65;;
51451;SDS011;37521;52.020;-1.740;2023-10-09T05:41:26;3.13;;;1.73;;
51451;SDS011;37521;52.020;-1.740;2023-10-09T05:44:12;3.03;;;1.45;;
51451;SDS011;37521;52.020;-1.740;2023-10-09T05:46:57;2.25;;;1.45;;
51451;SDS011;37521;52.020;-1.740;2023-10-09T05:49:46;3.10;;;1.92;;
51451;SDS011;37521;52.020;-1.740;2023-10-09T05:52:23;4.80;;;1.83;;
51451;SDS011;37521;52.020;-1.740;2023-10-09T05:55:27;2.88;;;1.60;;
51451;SDS011;37521;52.020;-1.740;2023-10-09T05:58:14;2.03;;;1.13;;
51451;SDS011;37521;52.020;-1.740;2023-10-09T06:01:00;1.88;;;1.42;;
51451;SDS011;37521;52.020;-1.740;2023-10-09T06:03:46;1.98;;;1.45;;
51451;SDS011;37521;52.020;-1.740;2023-10-09T06:06:21;5.25;;;1.27;;
51451;SDS011;37521;52.020;-1.740;2023-10-09T06:09:11;4.78;;;1.77;;
51451;SDS011;37521;52.020;-1.740;2023-10-09T06:11:58;3.17;;;1.85;;
51451;SDS011;37521;52.020;-1.740;2023-10-09T06:14:40;4.53;;;1.88;;
51451;SDS011;37521;52.020;-1.740;2023-10-09T06:17:24;3.05;;;1.92;;
51451;SDS011;37521;52.020;-1.740;2023-10-09T06:22:47;5.18;;;2.35;;
51451;SDS011;37521;52.020;-1.740;2023-10-09T06:25:25;3.17;;;2.00;;
51451;SDS011;37521;52.020;-1.740;2023-10-09T06:28:00;3.03;;;1.63;;
51451;SDS011;37521;52.020;-1.740;2023-10-09T06:30:28;2.25;;;1.40;;
51451;SDS011;37521;52.020;-1.740;2023-10-09T06:33:01;2.17;;;1.70;;
51451;SDS011;37521;52.020;-1.740;2023-10-09T06:35:47;3.33;;;1.70;;
51451;SDS011;37521;52.020;-1.740;2023-10-09T06:38:21;5.40;;;1.83;;
51451;SDS011;37521;52.020;-1.740;2023-10-09T06:40:50;4.57;;;2.35;;
51451;SDS011;37521;52.020;-1.740;2023-10-09T06:43:37;3.80;;;1.83;;
51451;SDS011;37521;52.020;-1.740;2023-10-09T06:46:14;8.10;;;1.98;;
51451;SDS011;37521;52.020;-1.740;2023-10-09T06:49:01;2.50;;;2.05;;
51451;SDS011;37521;52.020;-1.740;2023-10-09T06:51:52;5.07;;;2.15;;
51451;SDS011;37521;52.020;-1.740;2023-10-09T06:54:22;3.28;;;1.88;;
51451;SDS011;37521;52.020;-1.740;2023-10-09T06:56:54;5.68;;;1.80;;
51451;SDS011;37521;52.020;-1.740;2023-10-09T06:59:39;4.45;;;1.77;;
51451;SDS011;37521;52.020;-1.740;2023-10-09T07:02:25;3.25;;;1.48;;
51451;SDS011;37521;52.020;-1.740;2023-10-09T07:04:54;3.28;;;1.50;;
51451;SDS011;37521;52.020;-1.740;2023-10-09T07:07:22;3.45;;;1.88;;
51451;SDS011;37521;52.020;-1.740;2023-10-09T07:09:54;5.95;;;2.28;;
51451;SDS011;37521;52.020;-1.740;2023-10-09T07:12:41;2.88;;;1.73;;
51451;SDS011;37521;52.020;-1.740;2023-10-09T07:15:19;2.90;;;1.50;;
51451;SDS011;37521;52.020;-1.740;2023-10-09T07:18:05;2.78;;;1.75;;
51451;SDS011;37521;52.020;-1.740;2023-10-09T07:20:50;3.65;;;2.28;;
51451;SDS011;37521;52.020;-1.740;2023-10-09T07:23:28;4.28;;;2.17;;
51451;SDS011;37521;52.020;-1.740;2023-10-09T07:26:03;2.30;;;1.92;;
51451;SDS011;37521;52.020;-1.740;2023-10-09T07:28:53;5.93;;;2.05;;
51451;SDS011;37521;52.020;-1.740;2023-10-09T07:31:43;3.85;;;2.28;;
51451;SDS011;37521;52.020;-1.740;2023-10-09T07:34:15;4.13;;;2.08;;
51451;SDS011;37521;52.020;-1.740;2023-10-09T07:36:59;4.10;;;2.38;;
51451;SDS011;37521;52.020;-1.740;2023-10-09T07:39:31;4.57;;;2.40;;
51451;SDS011;37521;52.020;-1.740;2023-10-09T07:42:04;3.90;;;2.03;;
51451;SDS011;37521;52.020;-1.740;2023-10-09T07:44:57;3.03;;;2.28;;
51451;SDS011;37521;52.020;-1.740;2023-10-09T07:47:38;3.80;;;2.30;;
51451;SDS011;37521;52.020;-1.740;2023-10-09T07:50:34;4.57;;;2.38;;
51451;SDS011;37521;52.020;-1.740;2023-10-09T07:53:08;3.00;;;1.92;;
51451;SDS011;37521;52.020;-1.740;2023-10-09T07:55:54;3.00;;;2.33;;
51451;SDS011;37521;52.020;-1.740;2023-10-09T07:58:25;4.38;;;2.83;;
51451;SDS011;37521;52.020;-1.740;2023-10-09T08:00:55;7.93;;;2.90;;
51451;SDS011;37521;52.020;-1.740;2023-10-09T08:03:35;8.32;;;2.75;;
51451;SDS011;37521;52.020;-1.740;2023-10-09T08:06:03;4.38;;;2.80;;
51451;SDS011;37521;52.020;-1.740;2023-10-09T08:08:56;3.20;;;2.38;;
51451;SDS011;37521;52.020;-1.740;2023-10-09T08:11:49;4.75;;;3.47;;
51451;SDS011;37521;52.020;-1.740;2023-10-09T08:14:35;3.45;;;2.05;;
51451;SDS011;37521;52.020;-1.740;2023-10-09T08:17:13;4.82;;;2.53;;
51451;SDS011;37521;52.020;-1.740;2023-10-09T08:19:48;5.18;;;2.47;;
51451;SDS011;37521;52.020;-1.740;2023-10-09T08:22:26;3.60;;;2.33;;
51451;SDS011;37521;52.020;-1.740;2023-10-09T08:25:10;5.90;;;2.75;;
51451;SDS011;37521;52.020;-1.740;2023-10-09T08:27:54;2.42;;;1.92;;
51451;SDS011;37521;52.020;-1.740;2023-10-09T08:30:24;4.40;;;2.00;;
51451;SDS011;37521;52.020;-1.740;2023-10-09T08:32:57;4.50;;;2.78;;
51451;SDS011;37521;52.020;-1.740;2023-10-09T08:35:32;4.45;;;3.05;;
51451;SDS011;37521;52.020;-1.740;2023-10-09T08:38:01;4.47;;;2.47;;
51451;SDS011;37521;52.020;-1.740;2023-10-09T08:40:35;5.30;;;2.47;;
51451;SDS011;37521;52.020;-1.740;2023-10-09T08:43:08;2.60;;;2.20;;
51451;SDS011;37521;52.020;-1.740;2023-10-09T08:45:38;3.63;;;2.38;;
51451;SDS011;37521;52.020;-1.740;2023-10-09T08:48:09;8.95;;;3.38;;
51451;SDS011;37521;52.020;-1.740;2023-10-09T08:50:43;4.68;;;2.58;;
51451;SDS011;37521;52.020;-1.740;2023-10-09T08:53:12;5.65;;;2.85;;
51451;SDS011;37521;52.020;-1.740;2023-10-09T08:55:43;4.65;;;2.88;;
51451;SDS011;37521;52.020;-1.740;2023-10-09T08:58:14;8.32;;;2.78;;
51451;SDS011;37521;52.020;-1.740;2023-10-09T09:00:47;8.38;;;3.28;;
51451;SDS011;37521;52.020;-1.740;2023-10-09T09:03:18;6.18;;;3.53;;
51451;SDS011;37521;52.020;-1.740;2023-10-09T09:05:48;6.55;;;3.22;;
51451;SDS011;37521;52.020;-1.740;2023-10-09T09:08:28;3.60;;;2.53;;
51451;SDS011;37521;52.020;-1.740;2023-10-09T09:10:57;4.70;;;3.00;;
51451;SDS011;37521;52.020;-1.740;2023-10-09T09:13:39;4.80;;;2.25;;
51451;SDS011;37521;52.020;-1.740;2023-10-09T09:16:16;4.72;;;2.60;;
51451;SDS011;37521;52.020;-1.740;2023-10-09T09:18:53;4.43;;;2.70;;
51451;SDS011;37521;52.020;-1.740;2023-10-09T09:21:32;5.97;;;3.22;;
51451;SDS011;37521;52.020;-1.740;2023-10-09T09:24:08;6.18;;;3.10;;
51451;SDS011;37521;52.020;-1.740;2023-10-09T09:26:54;4.13;;;2.95;;
51451;SDS011;37521;52.020;-1.740;2023-10-09T09:29:37;3.22;;;2.35;;
51451;SDS011;37521;52.020;-1.740;2023-10-09T09:32:08;6.05;;;3.00;;
51451;SDS011;37521;52.020;-1.740;2023-10-09T09:34:46;4.03;;;2.58;;
51451;SDS011;37521;52.020;-1.740;2023-10-09T09:37:19;6.18;;;2.78;;
51451;SDS011;37521;52.020;-1.740;2023-10-09T09:39:51;6.22;;;2.65;;
51451;SDS011;37521;52.020;-1.740;2023-10-09T09:42:22;5.97;;;2.72;;
51451;SDS011;37521;52.020;-1.740;2023-10-09T09:44:54;7.82;;;2.80;;
51451;SDS011;37521;52.020;-1.740;2023-10-09T09:47:24;5.18;;;2.70;;
51451;SDS011;37521;52.020;-1.740;2023-10-09T09:49:56;4.50;;;2.55;;
51451;SDS011;37521;52.020;-1.740;2023-10-09T09:52:32;4.97;;;3.15;;
51451;SDS011;37521;52.020;-1.740;2023-10-09T09:55:06;5.35;;;2.42;;
51451;SDS011;37521;52.020;-1.740;2023-10-09T09:57:41;3.88;;;2.72;;
51451;SDS011;37521;52.020;-1.740;2023-10-09T10:00:19;7.63;;;2.83;;
51451;SDS011;37521;52.020;-1.740;2023-10-09T10:02:59;3.70;;;2.40;;
51451;SDS011;37521;52.020;-1.740;2023-10-09T10:05:35;5.57;;;2.60;;
51451;SDS011;37521;52.020;-1.740;2023-10-09T10:08:07;3.65;;;2.55;;
51451;SDS011;37521;52.020;-1.740;2023-10-09T10:10:39;4.40;;;2.22;;
51451;SDS011;37521;52.020;-1.740;2023-10-09T10:13:17;9.07;;;2.95;;
51451;SDS011;37521;52.020;-1.740;2023-10-09T10:15:58;5.80;;;2.88;;
51451;SDS011;37521;52.020;-1.740;2023-10-09T10:18:53;3.55;;;2.47;;
51451;SDS011;37521;52.020;-1.740;2023-10-09T10:21:28;5.50;;;2.45;;
51451;SDS011;37521;52.020;-1.740;2023-10-09T10:24:04;2.78;;;1.85;;
51451;SDS011;37521;52.020;-1.740;2023-10-09T10:26:53;3.47;;;2.25;;
51451;SDS011;37521;52.020;-1.740;2023-10-09T10:32:59;2.40;;;2.08;;
51451;SDS011;37521;52.020;-1.740;2023-10-09T10:35:36;3.78;;;1.85;;
51451;SDS011;37521;52.020;-1.740;2023-10-09T10:38:23;4.00;;;2.08;;
51451;SDS011;37521;52.020;-1.740;2023-10-09T10:41:09;5.50;;;2.58;;
51451;SDS011;37521;52.020;-1.740;2023-10-09T10:43:40;4.68;;;2.33;;
51451;SDS011;37521;52.020;-1.740;2023-10-09T10:46:50;5.22;;;2.25;;
51451;SDS011;37521;52.020;-1.740;2023-10-09T10:49:19;8.48;;;2.55;;
51451;SDS011;37521;52.020;-1.740;2023-10-09T10:51:50;4.10;;;2.42;;
51451;SDS011;37521;52.020;-1.740;2023-10-09T10:54:30;5.07;;;2.45;;
51451;SDS011;37521;52.020;-1.740;2023-10-09T10:57:14;3.88;;;2.55;;
51451;SDS011;37521;52.020;-1.740;2023-10-09T10:59:56;3.85;;;2.15;;
51451;SDS011;37521;52.020;-1.740;2023-10-09T11:03:00;2.20;;;1.50;;
51451;SDS011;37521;52.020;-1.740;2023-10-09T11:05:41;6.13;;;1.92;;
51451;SDS011;37521;52.020;-1.740;2023-10-09T11:08:18;3.85;;;2.08;;
51451;SDS011;37521;52.020;-1.740;2023-10-09T11:10:51;3.20;;;2.20;;
51451;SDS011;37521;52.020;-1.740;2023-10-09T11:13:21;4.40;;;2.30;;
51451;SDS011;37521;52.020;-1.740;2023-10-09T11:15:59;3.25;;;2.00;;
51451;SDS011;37521;52.020;-1.740;2023-10-09T11:21:13;2.95;;;1.80;;
51451;SDS011;37521;52.020;-1.740;2023-10-09T11:24:07;2.60;;;2.15;;
51451;SDS011;37521;52.020;-1.740;2023-10-09T11:27:01;3.05;;;2.10;;
51451;SDS011;37521;52.020;-1.740;2023-10-09T11:29:32;4.43;;;2.07;;
51451;SDS011;37521;52.020;-1.740;2023-10-09T11:32:15;2.97;;;1.98;;
51451;SDS011;37521;52.020;-1.740;2023-10-09T11:34:50;2.63;;;1.95;;
51451;SDS011;37521;52.020;-1.740;2023-10-09T11:37:36;2.47;;;1.75;;
51451;SDS011;37521;52.020;-1.740;2023-10-09T11:43:01;3.40;;;2.05;;
51451;SDS011;37521;52.020;-1.740;2023-10-09T11:45:30;6.57;;;2.38;;
51451;SDS011;37521;52.020;-1.740;2023-10-09T11:50:59;4.80;;;2.35;;
51451;SDS011;37521;52.020;-1.740;2023-10-09T11:53:42;2.40;;;2.10;;
51451;SDS011;37521;52.020;-1.740;2023-10-09T11:56:13;4.85;;;2.35;;
51451;SDS011;37521;52.020;-1.740;2023-10-09T11:58:45;7.53;;;2.65;;
51451;SDS011;37521;52.020;-1.740;2023-10-09T12:03:47;3.17;;;2.25;;
51451;SDS011;37521;52.020;-1.740;2023-10-09T12:06:18;4.15;;;2.60;;
51451;SDS011;37521;52.020;-1.740;2023-10-09T12:08:49;6.53;;;3.08;;
51451;SDS011;37521;52.020;-1.740;2023-10-09T12:11:20;4.25;;;2.83;;
51451;SDS011;37521;52.020;-1.740;2023-10-09T12:13:57;4.97;;;2.60;;
51451;SDS011;37521;52.020;-1.740;2023-10-09T12:16:27;4.50;;;2.97;;
51451;SDS011;37521;52.020;-1.740;2023-10-09T12:19:00;3.25;;;2.65;;
51451;SDS011;37521;52.020;-1.740;2023-10-09T12:21:29;6.65;;;3.40;;
51451;SDS011;37521;52.020;-1.740;2023-10-09T12:23:57;3.42;;;2.60;;
51451;SDS011;37521;52.020;-1.740;2023-10-09T12:26:28;3.78;;;2.53;;
51451;SDS011;37521;52.020;-1.740;2023-10-09T12:31:38;4.95;;;2.08;;
51451;SDS011;37521;52.020;-1.740;2023-10-09T12:34:07;5.38;;;2.78;;
51451;SDS011;37521;52.020;-1.740;2023-10-09T12:36:35;3.88;;;2.88;;
51451;SDS011;37521;52.020;-1.740;2023-10-09T12:39:04;3.47;;;2.30;;
51451;SDS011;37521;52.020;-1.740;2023-10-09T12:41:33;4.53;;;2.35;;
51451;SDS011;37521;52.020;-1.740;2023-10-09T12:44:09;3.75;;;2.47;;
51451;SDS011;37521;52.020;-1.740;2023-10-09T12:46:42;5.35;;;2.53;;
51451;SDS011;37521;52.020;-1.740;2023-10-09T12:49:19;4.22;;;2.25;;
51451;SDS011;37521;52.020;-1.740;2023-10-09T12:51:52;7.20;;;2.92;;
51451;SDS011;37521;52.020;-1.740;2023-10-09T12:54:21;3.08;;;2.38;;
51451;SDS011;37521;52.020;-1.740;2023-10-09T12:56:54;3.17;;;2.42;;
51451;SDS011;37521;52.020;-1.740;2023-10-09T12:59:25;4.10;;;2.90;;
51451;SDS011;37521;52.020;-1.740;2023-10-09T13:01:54;3.42;;;2.30;;
51451;SDS011;37521;52.020;-1.740;2023-10-09T13:04:25;4.97;;;2.33;;
51451;SDS011;37521;52.020;-1.740;2023-10-09T13:06:59;4.20;;;2.88;;
51451;SDS011;37521;52.020;-1.740;2023-10-09T13:09:31;6.30;;;3.20;;
51451;SDS011;37521;52.020;-1.740;2023-10-09T13:12:10;5.72;;;3.00;;
51451;SDS011;37521;52.020;-1.740;2023-10-09T13:14:47;4.97;;;2.88;;
51451;SDS011;37521;52.020;-1.740;2023-10-09T13:17:16;3.72;;;2.70;;
51451;SDS011;37521;52.020;-1.740;2023-10-09T13:19:47;8.18;;;2.88;;
51451;SDS011;37521;52.020;-1.740;2023-10-09T13:22:16;4.85;;;2.90;;
51451;SDS011;37521;52.020;-1.740;2023-10-09T13:24:44;4.90;;;2.88;;
51451;SDS011;37521;52.020;-1.740;2023-10-09T13:27:15;4.70;;;2.85;;
51451;SDS011;37521;52.020;-1.740;2023-10-09T13:29:49;4.38;;;2.83;;
51451;SDS011;37521;52.020;-1.740;2023-10-09T13:32:19;8.15;;;3.20;;
51451;SDS011;37521;52.020;-1.740;2023-10-09T13:34:47;5.18;;;3.15;;
51451;SDS011;37521;52.020;-1.740;2023-10-09T13:37:16;7.70;;;3.53;;
51451;SDS011;37521;52.020;-1.740;2023-10-09T13:39:49;4.13;;;2.80;;
51451;SDS011;37521;52.020;-1.740;2023-10-09T13:42:20;5.15;;;3.25;;
51451;SDS011;37521;52.020;-1.740;2023-10-09T13:44:53;4.32;;;3.08;;
51451;SDS011;37521;52.020;-1.740;2023-10-09T13:47:22;6.18;;;3.60;;
51451;SDS011;37521;52.020;-1.740;2023-10-09T13:49:58;5.07;;;3.42;;
51451;SDS011;37521;52.020;-1.740;2023-10-09T13:52:27;3.63;;;2.78;;
51451;SDS011;37521;52.020;-1.740;2023-10-09T13:54:57;5.60;;;2.88;;
51451;SDS011;37521;52.020;-1.740;2023-10-09T13:57:42;5.78;;;3.05;;
51451;SDS011;37521;52.020;-1.740;2023-10-09T14:00:14;4.88;;;2.90;;
51451;SDS011;37521;52.020;-1.740;2023-10-09T14:02:59;5.18;;;3.42;;
51451;SDS011;37521;52.020;-1.740;2023-10-09T14:05:38;8.13;;;3.25;;
51451;SDS011;37521;52.020;-1.740;2023-10-09T14:08:19;4.07;;;3.08;;
51451;SDS011;37521;52.020;-1.740;2023-10-09T14:10:49;5.40;;;2.92;;
51451;SDS011;37521;52.020;-1.740;2023-10-09T14:13:18;6.47;;;2.80;;
51451;SDS011;37521;52.020;-1.740;2023-10-09T14:15:54;3.72;;;2.70;;
51451;SDS011;37521;52.020;-1.740;2023-10-09T14:18:27;4.18;;;2.60;;
51451;SDS011;37521;52.020;-1.740;2023-10-09T14:21:00;6.75;;;3.17;;
51451;SDS011;37521;52.020;-1.740;2023-10-09T14:23:31;4.50;;;3.13;;
51451;SDS011;37521;52.020;-1.740;2023-10-09T14:26:01;4.55;;;3.17;;
51451;SDS011;37521;52.020;-1.740;2023-10-09T14:28:33;4.82;;;2.92;;
51451;SDS011;37521;52.020;-1.740;2023-10-09T14:31:03;4.40;;;2.88;;
51451;SDS011;37521;52.020;-1.740;2023-10-09T14:33:38;4.97;;;2.95;;
51451;SDS011;37521;52.020;-1.740;2023-10-09T14:36:07;3.95;;;2.85;;
51451;SDS011;37521;52.020;-1.740;2023-10-09T14:38:41;8.85;;;3.30;;
51451;SDS011;37521;52.020;-1.740;2023-10-09T14:41:09;4.57;;;2.78;;
51451;SDS011;37521;52.020;-1.740;2023-10-09T14:43:39;5.88;;;3.03;;
51451;SDS011;37521;52.020;-1.740;2023-10-09T14:46:13;6.75;;;3.58;;
51451;SDS011;37521;52.020;-1.740;2023-10-09T14:48:43;6.22;;;3.60;;
51451;SDS011;37521;52.020;-1.740;2023-10-09T14:51:13;7.78;;;3.67;;
51451;SDS011;37521;52.020;-1.740;2023-10-09T14:53:42;10.50;;;3.08;;
51451;SDS011;37521;52.020;-1.740;2023-10-09T14:56:11;4.22;;;2.83;;
51451;SDS011;37521;52.020;-1.740;2023-10-09T14:58:42;4.18;;;2.63;;
51451;SDS011;37521;52.020;-1.740;2023-10-09T15:01:15;7.38;;;2.60;;
51451;SDS011;37521;52.020;-1.740;2023-10-09T15:03:46;6.60;;;2.40;;
51451;SDS011;37521;52.020;-1.740;2023-10-09T15:06:19;5.00;;;2.55;;
51451;SDS011;37521;52.020;-1.740;2023-10-09T15:08:48;4.47;;;2.60;;
51451;SDS011;37521;52.020;-1.740;2023-10-09T15:11:16;4.95;;;2.80;;
51451;SDS011;37521;52.020;-1.740;2023-10-09T15:13:51;4.30;;;2.88;;
51451;SDS011;37521;52.020;-1.740;2023-10-09T15:16:22;4.75;;;2.88;;
51451;SDS011;37521;52.020;-1.740;2023-10-09T15:18:54;8.45;;;3.15;;
51451;SDS011;37521;52.020;-1.740;2023-10-09T15:21:29;3.20;;;2.58;;
51451;SDS011;37521;52.020;-1.740;2023-10-09T15:24:00;3.08;;;2.30;;
51451;SDS011;37521;52.020;-1.740;2023-10-09T15:26:28;4.32;;;2.85;;
51451;SDS011;37521;52.020;-1.740;2023-10-09T15:29:00;8.63;;;2.92;;
51451;SDS011;37521;52.020;-1.740;2023-10-09T15:31:35;4.03;;;2.85;;
51451;SDS011;37521;52.020;-1.740;2023-10-09T15:34:04;6.47;;;2.92;;
51451;SDS011;37521;52.020;-1.740;2023-10-09T15:36:35;4.50;;;2.63;;
51451;SDS011;37521;52.020;-1.740;2023-10-09T15:39:03;4.07;;;2.70;;
51451;SDS011;37521;52.020;-1.740;2023-10-09T15:41:34;7.47;;;2.65;;
51451;SDS011;37521;52.020;-1.740;2023-10-09T15:44:03;3.63;;;2.53;;